aviador You're here:

RPLB Decoded Metar

OLONGAPO/SUBIC in PHILIPPINES
Report Time2018-07-17 11:00:00
UTC Time2018-07-17 11:45:53
Flight Rules vfr VFR
Wind110° at 02 kt
W.Decomp.*RWY 07: 1.5 kt HW 1.3 kt RCW
W.Rank110° ranks 25
Current wind is below 110° avg. (5.3)
Visibility9000 m
Phenomena:Light Rain
Clouds:Scattered 016 Hf
Overcast 080 Hf
Expected CloudBase > 400 ft AGL from Temp-Dew spread
Ceiling8,000 ft
Temp25°C (ISA +10)
Dew Point24°C (94% RH)
QNH1004 hPa
Density Alt1,923 ft
Elevation56 ft
Report Wrong Elevation
Raw Report
METAR RPLB 171100Z 11002KT 9000 -RA SCT016 OVC080 25/24 Q1004 RMK
A2965=

Extra information for RPLB:More info

Metar Taf Metar & Taf Last 4 Metars F.Rules Stats Wind Profile Meteogram Temp Stats Airport Information Weather charts Add Link Nearby VenuesMetar ALERT Operation Metar Decoded Social comments